sensor_id;sensor_type;location;lat;lon;timestamp;P1;durP1;ratioP1;P2;durP2;ratioP2
44480;SDS011;30184;42.018;23.670;2023-02-23T00:02:21;36.05;;;15.18;;
44480;SDS011;30184;42.018;23.670;2023-02-23T00:04:50;51.05;;;19.13;;
44480;SDS011;30184;42.018;23.670;2023-02-23T00:07:18;33.00;;;14.43;;
44480;SDS011;30184;42.018;23.670;2023-02-23T00:09:48;25.80;;;12.13;;
44480;SDS011;30184;42.018;23.670;2023-02-23T00:12:19;30.33;;;13.27;;
44480;SDS011;30184;42.018;23.670;2023-02-23T00:14:51;28.02;;;11.75;;
44480;SDS011;30184;42.018;23.670;2023-02-23T00:17:20;44.63;;;17.85;;
44480;SDS011;30184;42.018;23.670;2023-02-23T00:19:50;42.17;;;15.70;;
44480;SDS011;30184;42.018;23.670;2023-02-23T00:22:19;44.42;;;18.00;;
44480;SDS011;30184;42.018;23.670;2023-02-23T00:24:48;34.22;;;18.88;;
44480;SDS011;30184;42.018;23.670;2023-02-23T00:27:17;28.45;;;15.77;;
44480;SDS011;30184;42.018;23.670;2023-02-23T00:29:47;30.00;;;16.85;;
44480;SDS011;30184;42.018;23.670;2023-02-23T00:32:18;36.33;;;18.27;;
44480;SDS011;30184;42.018;23.670;2023-02-23T00:34:47;15.45;;;10.48;;
44480;SDS011;30184;42.018;23.670;2023-02-23T00:37:17;18.00;;;10.35;;
44480;SDS011;30184;42.018;23.670;2023-02-23T00:39:48;16.45;;;8.32;;
44480;SDS011;30184;42.018;23.670;2023-02-23T00:42:18;13.32;;;7.68;;
44480;SDS011;30184;42.018;23.670;2023-02-23T00:44:47;18.13;;;9.10;;
44480;SDS011;30184;42.018;23.670;2023-02-23T00:47:17;14.30;;;8.02;;
44480;SDS011;30184;42.018;23.670;2023-02-23T00:49:48;18.48;;;9.35;;
44480;SDS011;30184;42.018;23.670;2023-02-23T00:52:18;26.70;;;11.70;;
44480;SDS011;30184;42.018;23.670;2023-02-23T00:54:47;34.88;;;15.40;;
44480;SDS011;30184;42.018;23.670;2023-02-23T00:57:16;32.58;;;13.05;;
44480;SDS011;30184;42.018;23.670;2023-02-23T00:59:45;27.85;;;14.07;;
44480;SDS011;30184;42.018;23.670;2023-02-23T01:02:14;33.25;;;18.40;;
44480;SDS011;30184;42.018;23.670;2023-02-23T01:04:44;34.03;;;16.10;;
44480;SDS011;30184;42.018;23.670;2023-02-23T01:07:13;30.52;;;13.25;;
44480;SDS011;30184;42.018;23.670;2023-02-23T01:09:42;33.75;;;16.88;;
44480;SDS011;30184;42.018;23.670;2023-02-23T01:12:11;62.28;;;25.65;;
44480;SDS011;30184;42.018;23.670;2023-02-23T01:14:43;29.63;;;13.65;;
44480;SDS011;30184;42.018;23.670;2023-02-23T01:17:13;22.63;;;11.00;;
44480;SDS011;30184;42.018;23.670;2023-02-23T01:19:45;15.85;;;8.25;;
44480;SDS011;30184;42.018;23.670;2023-02-23T01:22:14;17.08;;;9.55;;
44480;SDS011;30184;42.018;23.670;2023-02-23T01:24:44;20.65;;;9.77;;
44480;SDS011;30184;42.018;23.670;2023-02-23T01:27:13;20.85;;;10.43;;
44480;SDS011;30184;42.018;23.670;2023-02-23T01:29:42;17.55;;;10.25;;
44480;SDS011;30184;42.018;23.670;2023-02-23T01:32:12;10.60;;;5.82;;
44480;SDS011;30184;42.018;23.670;2023-02-23T01:34:41;12.32;;;5.72;;
44480;SDS011;30184;42.018;23.670;2023-02-23T01:37:13;13.38;;;5.70;;
44480;SDS011;30184;42.018;23.670;2023-02-23T01:39:42;11.95;;;6.50;;
44480;SDS011;30184;42.018;23.670;2023-02-23T01:42:12;11.82;;;6.85;;
44480;SDS011;30184;42.018;23.670;2023-02-23T01:47:46;11.15;;;5.93;;
44480;SDS011;30184;42.018;23.670;2023-02-23T01:50:16;10.88;;;6.00;;
44480;SDS011;30184;42.018;23.670;2023-02-23T01:52:47;16.08;;;7.90;;
44480;SDS011;30184;42.018;23.670;2023-02-23T01:55:20;20.85;;;10.23;;
44480;SDS011;30184;42.018;23.670;2023-02-23T01:57:52;17.33;;;9.23;;
44480;SDS011;30184;42.018;23.670;2023-02-23T02:00:25;20.63;;;10.15;;
44480;SDS011;30184;42.018;23.670;2023-02-23T02:02:59;20.20;;;10.30;;
44480;SDS011;30184;42.018;23.670;2023-02-23T02:05:36;34.57;;;14.77;;
44480;SDS011;30184;42.018;23.670;2023-02-23T02:08:07;31.45;;;13.50;;
44480;SDS011;30184;42.018;23.670;2023-02-23T02:10:37;19.88;;;10.45;;
44480;SDS011;30184;42.018;23.670;2023-02-23T02:13:18;31.90;;;12.90;;
44480;SDS011;30184;42.018;23.670;2023-02-23T02:15:56;41.10;;;16.48;;
44480;SDS011;30184;42.018;23.670;2023-02-23T02:18:45;31.55;;;12.95;;
44480;SDS011;30184;42.018;23.670;2023-02-23T02:21:34;29.70;;;12.88;;
44480;SDS011;30184;42.018;23.670;2023-02-23T02:24:45;27.13;;;11.57;;
44480;SDS011;30184;42.018;23.670;2023-02-23T02:27:46;27.35;;;11.98;;
44480;SDS011;30184;42.018;23.670;2023-02-23T02:39:00;21.27;;;8.80;;
44480;SDS011;30184;42.018;23.670;2023-02-23T02:41:46;14.93;;;7.27;;
44480;SDS011;30184;42.018;23.670;2023-02-23T02:44:23;15.18;;;6.60;;
44480;SDS011;30184;42.018;23.670;2023-02-23T02:46:58;13.10;;;6.30;;
44480;SDS011;30184;42.018;23.670;2023-02-23T02:49:35;13.85;;;6.90;;
44480;SDS011;30184;42.018;23.670;2023-02-23T02:52:13;21.02;;;8.63;;
44480;SDS011;30184;42.018;23.670;2023-02-23T02:54:48;17.42;;;8.10;;
44480;SDS011;30184;42.018;23.670;2023-02-23T02:57:21;16.58;;;7.53;;
44480;SDS011;30184;42.018;23.670;2023-02-23T02:59:54;15.05;;;8.38;;
44480;SDS011;30184;42.018;23.670;2023-02-23T03:02:42;18.98;;;10.23;;
44480;SDS011;30184;42.018;23.670;2023-02-23T03:05:33;18.90;;;9.80;;
44480;SDS011;30184;42.018;23.670;2023-02-23T03:08:30;14.82;;;6.60;;
44480;SDS011;30184;42.018;23.670;2023-02-23T03:11:24;14.98;;;7.15;;
44480;SDS011;30184;42.018;23.670;2023-02-23T03:14:23;11.65;;;6.18;;
44480;SDS011;30184;42.018;23.670;2023-02-23T03:17:18;19.75;;;8.35;;
44480;SDS011;30184;42.018;23.670;2023-02-23T03:20:16;18.13;;;7.97;;
44480;SDS011;30184;42.018;23.670;2023-02-23T03:23:10;15.60;;;7.57;;
44480;SDS011;30184;42.018;23.670;2023-02-23T03:26:05;16.80;;;7.90;;
44480;SDS011;30184;42.018;23.670;2023-02-23T03:28:59;18.25;;;9.63;;
44480;SDS011;30184;42.018;23.670;2023-02-23T03:31:52;16.50;;;8.07;;
44480;SDS011;30184;42.018;23.670;2023-02-23T03:34:45;18.73;;;8.27;;
44480;SDS011;30184;42.018;23.670;2023-02-23T03:37:37;18.02;;;8.25;;
44480;SDS011;30184;42.018;23.670;2023-02-23T03:40:27;11.88;;;6.82;;
44480;SDS011;30184;42.018;23.670;2023-02-23T03:43:18;15.18;;;6.63;;
44480;SDS011;30184;42.018;23.670;2023-02-23T03:46:11;21.50;;;10.85;;
44480;SDS011;30184;42.018;23.670;2023-02-23T03:49:01;38.15;;;15.93;;
44480;SDS011;30184;42.018;23.670;2023-02-23T03:51:52;15.38;;;8.38;;
44480;SDS011;30184;42.018;23.670;2023-02-23T03:54:44;15.48;;;8.35;;
44480;SDS011;30184;42.018;23.670;2023-02-23T03:57:34;16.73;;;9.18;;
44480;SDS011;30184;42.018;23.670;2023-02-23T04:00:24;14.95;;;6.50;;
44480;SDS011;30184;42.018;23.670;2023-02-23T04:03:16;17.25;;;6.13;;
44480;SDS011;30184;42.018;23.670;2023-02-23T04:06:05;15.43;;;7.18;;
44480;SDS011;30184;42.018;23.670;2023-02-23T04:08:56;15.27;;;7.93;;
44480;SDS011;30184;42.018;23.670;2023-02-23T04:11:48;16.92;;;6.45;;
44480;SDS011;30184;42.018;23.670;2023-02-23T04:14:41;12.23;;;6.57;;
44480;SDS011;30184;42.018;23.670;2023-02-23T04:17:11;21.67;;;10.30;;
44480;SDS011;30184;42.018;23.670;2023-02-23T04:19:49;21.83;;;9.45;;
44480;SDS011;30184;42.018;23.670;2023-02-23T04:22:19;18.77;;;8.95;;
44480;SDS011;30184;42.018;23.670;2023-02-23T04:24:48;19.60;;;9.02;;
44480;SDS011;30184;42.018;23.670;2023-02-23T04:27:18;35.10;;;18.83;;
44480;SDS011;30184;42.018;23.670;2023-02-23T04:29:47;41.65;;;18.70;;
44480;SDS011;30184;42.018;23.670;2023-02-23T04:32:17;50.03;;;24.25;;
44480;SDS011;30184;42.018;23.670;2023-02-23T04:34:48;58.63;;;25.13;;
44480;SDS011;30184;42.018;23.670;2023-02-23T04:37:17;40.60;;;19.27;;
44480;SDS011;30184;42.018;23.670;2023-02-23T04:39:46;39.80;;;18.67;;
44480;SDS011;30184;42.018;23.670;2023-02-23T04:42:16;49.17;;;22.80;;
44480;SDS011;30184;42.018;23.670;2023-02-23T04:44:46;63.92;;;25.40;;
44480;SDS011;30184;42.018;23.670;2023-02-23T04:47:15;62.95;;;30.48;;
44480;SDS011;30184;42.018;23.670;2023-02-23T04:49:44;30.00;;;16.58;;
44480;SDS011;30184;42.018;23.670;2023-02-23T04:52:14;34.47;;;19.63;;
44480;SDS011;30184;42.018;23.670;2023-02-23T04:54:43;25.30;;;13.77;;
44480;SDS011;30184;42.018;23.670;2023-02-23T04:57:12;32.50;;;17.77;;
44480;SDS011;30184;42.018;23.670;2023-02-23T04:59:41;47.28;;;19.48;;
44480;SDS011;30184;42.018;23.670;2023-02-23T05:02:10;29.92;;;17.88;;
44480;SDS011;30184;42.018;23.670;2023-02-23T05:04:39;23.08;;;12.45;;
44480;SDS011;30184;42.018;23.670;2023-02-23T05:07:08;33.08;;;14.05;;
44480;SDS011;30184;42.018;23.670;2023-02-23T05:09:38;39.05;;;18.48;;
44480;SDS011;30184;42.018;23.670;2023-02-23T05:12:07;104.97;;;43.67;;
44480;SDS011;30184;42.018;23.670;2023-02-23T05:14:36;132.90;;;49.97;;
44480;SDS011;30184;42.018;23.670;2023-02-23T05:17:05;170.77;;;54.35;;
44480;SDS011;30184;42.018;23.670;2023-02-23T05:19:34;332.42;;;97.70;;
44480;SDS011;30184;42.018;23.670;2023-02-23T05:22:04;348.02;;;100.05;;
44480;SDS011;30184;42.018;23.670;2023-02-23T05:24:33;309.90;;;98.28;;
44480;SDS011;30184;42.018;23.670;2023-02-23T05:27:04;121.00;;;44.38;;
44480;SDS011;30184;42.018;23.670;2023-02-23T05:29:33;254.40;;;87.68;;
44480;SDS011;30184;42.018;23.670;2023-02-23T05:32:02;72.82;;;35.67;;
44480;SDS011;30184;42.018;23.670;2023-02-23T05:34:32;63.92;;;33.30;;
44480;SDS011;30184;42.018;23.670;2023-02-23T05:37:01;80.18;;;40.55;;
44480;SDS011;30184;42.018;23.670;2023-02-23T05:39:30;102.60;;;54.45;;
44480;SDS011;30184;42.018;23.670;2023-02-23T05:41:59;71.97;;;38.97;;
44480;SDS011;30184;42.018;23.670;2023-02-23T05:44:29;72.30;;;35.15;;
44480;SDS011;30184;42.018;23.670;2023-02-23T05:46:58;73.38;;;40.58;;
44480;SDS011;30184;42.018;23.670;2023-02-23T05:49:27;92.85;;;50.00;;
44480;SDS011;30184;42.018;23.670;2023-02-23T05:51:56;70.03;;;38.08;;
44480;SDS011;30184;42.018;23.670;2023-02-23T05:54:25;97.93;;;42.78;;
44480;SDS011;30184;42.018;23.670;2023-02-23T05:56:54;133.88;;;54.25;;
44480;SDS011;30184;42.018;23.670;2023-02-23T05:59:23;67.15;;;36.60;;
44480;SDS011;30184;42.018;23.670;2023-02-23T06:01:53;133.77;;;62.25;;
44480;SDS011;30184;42.018;23.670;2023-02-23T06:04:22;119.43;;;56.92;;
44480;SDS011;30184;42.018;23.670;2023-02-23T06:06:51;76.40;;;37.92;;
44480;SDS011;30184;42.018;23.670;2023-02-23T06:09:20;85.05;;;43.60;;
44480;SDS011;30184;42.018;23.670;2023-02-23T06:11:49;130.07;;;63.97;;
44480;SDS011;30184;42.018;23.670;2023-02-23T06:14:18;97.00;;;49.13;;
44480;SDS011;30184;42.018;23.670;2023-02-23T06:16:47;83.45;;;38.22;;
44480;SDS011;30184;42.018;23.670;2023-02-23T06:19:17;68.68;;;32.80;;
44480;SDS011;30184;42.018;23.670;2023-02-23T06:21:46;124.45;;;48.58;;
44480;SDS011;30184;42.018;23.670;2023-02-23T06:24:15;146.50;;;58.75;;
44480;SDS011;30184;42.018;23.670;2023-02-23T06:26:45;191.25;;;71.40;;
44480;SDS011;30184;42.018;23.670;2023-02-23T06:29:14;279.83;;;79.53;;
44480;SDS011;30184;42.018;23.670;2023-02-23T06:31:43;385.58;;;112.15;;
44480;SDS011;30184;42.018;23.670;2023-02-23T06:34:12;285.52;;;90.78;;
44480;SDS011;30184;42.018;23.670;2023-02-23T06:36:43;115.70;;;44.90;;
44480;SDS011;30184;42.018;23.670;2023-02-23T06:39:12;163.95;;;59.25;;
44480;SDS011;30184;42.018;23.670;2023-02-23T06:41:41;149.85;;;57.80;;
44480;SDS011;30184;42.018;23.670;2023-02-23T06:44:10;77.80;;;35.10;;
44480;SDS011;30184;42.018;23.670;2023-02-23T06:46:39;120.88;;;45.28;;
44480;SDS011;30184;42.018;23.670;2023-02-23T06:49:08;190.07;;;81.53;;
44480;SDS011;30184;42.018;23.670;2023-02-23T06:51:40;185.73;;;83.15;;
44480;SDS011;30184;42.018;23.670;2023-02-23T06:54:10;92.90;;;43.92;;
44480;SDS011;30184;42.018;23.670;2023-02-23T06:56:39;61.65;;;32.42;;
44480;SDS011;30184;42.018;23.670;2023-02-23T06:59:08;63.55;;;31.20;;
44480;SDS011;30184;42.018;23.670;2023-02-23T07:01:37;57.67;;;28.95;;
44480;SDS011;30184;42.018;23.670;2023-02-23T07:04:06;67.90;;;35.47;;
44480;SDS011;30184;42.018;23.670;2023-02-23T07:06:35;68.50;;;35.47;;
44480;SDS011;30184;42.018;23.670;2023-02-23T07:09:04;101.90;;;48.63;;
44480;SDS011;30184;42.018;23.670;2023-02-23T07:11:34;122.20;;;66.90;;
44480;SDS011;30184;42.018;23.670;2023-02-23T07:14:03;134.52;;;76.95;;
44480;SDS011;30184;42.018;23.670;2023-02-23T07:16:36;75.90;;;43.85;;
44480;SDS011;30184;42.018;23.670;2023-02-23T07:19:06;80.30;;;44.67;;
44480;SDS011;30184;42.018;23.670;2023-02-23T07:21:35;117.05;;;54.45;;
44480;SDS011;30184;42.018;23.670;2023-02-23T07:24:04;124.38;;;58.17;;
44480;SDS011;30184;42.018;23.670;2023-02-23T07:26:35;150.15;;;71.90;;
44480;SDS011;30184;42.018;23.670;2023-02-23T07:29:04;110.78;;;56.30;;
44480;SDS011;30184;42.018;23.670;2023-02-23T07:31:33;106.35;;;53.40;;
44480;SDS011;30184;42.018;23.670;2023-02-23T07:34:02;58.10;;;35.03;;
44480;SDS011;30184;42.018;23.670;2023-02-23T07:36:31;92.93;;;49.65;;
44480;SDS011;30184;42.018;23.670;2023-02-23T07:39:00;119.75;;;62.47;;
44480;SDS011;30184;42.018;23.670;2023-02-23T07:41:29;78.28;;;46.78;;
44480;SDS011;30184;42.018;23.670;2023-02-23T07:44:00;83.82;;;44.40;;
44480;SDS011;30184;42.018;23.670;2023-02-23T07:46:29;85.07;;;47.13;;
44480;SDS011;30184;42.018;23.670;2023-02-23T07:48:58;72.18;;;40.55;;
44480;SDS011;30184;42.018;23.670;2023-02-23T07:51:27;70.78;;;40.08;;
44480;SDS011;30184;42.018;23.670;2023-02-23T07:54:00;88.00;;;47.78;;
44480;SDS011;30184;42.018;23.670;2023-02-23T07:56:31;73.30;;;32.08;;
44480;SDS011;30184;42.018;23.670;2023-02-23T07:59:01;167.30;;;77.43;;
44480;SDS011;30184;42.018;23.670;2023-02-23T08:01:31;94.43;;;51.05;;
44480;SDS011;30184;42.018;23.670;2023-02-23T08:03:59;64.80;;;35.60;;
44480;SDS011;30184;42.018;23.670;2023-02-23T08:06:29;68.25;;;37.55;;
44480;SDS011;30184;42.018;23.670;2023-02-23T08:08:58;51.80;;;27.23;;
44480;SDS011;30184;42.018;23.670;2023-02-23T08:11:27;56.10;;;31.60;;
44480;SDS011;30184;42.018;23.670;2023-02-23T08:13:56;42.00;;;23.60;;
44480;SDS011;30184;42.018;23.670;2023-02-23T08:16:28;32.97;;;18.80;;
44480;SDS011;30184;42.018;23.670;2023-02-23T08:18:59;40.92;;;22.52;;
44480;SDS011;30184;42.018;23.670;2023-02-23T08:21:29;36.65;;;20.13;;
44480;SDS011;30184;42.018;23.670;2023-02-23T08:23:58;39.30;;;20.77;;
44480;SDS011;30184;42.018;23.670;2023-02-23T08:26:27;49.35;;;26.65;;
44480;SDS011;30184;42.018;23.670;2023-02-23T08:28:56;39.55;;;20.20;;
44480;SDS011;30184;42.018;23.670;2023-02-23T08:31:24;35.67;;;18.98;;
44480;SDS011;30184;42.018;23.670;2023-02-23T08:33:55;43.78;;;24.08;;
44480;SDS011;30184;42.018;23.670;2023-02-23T08:36:24;42.85;;;24.75;;
44480;SDS011;30184;42.018;23.670;2023-02-23T08:38:53;55.75;;;33.70;;
44480;SDS011;30184;42.018;23.670;2023-02-23T08:41:22;13.50;;;7.50;;
44480;SDS011;30184;42.018;23.670;2023-02-23T08:43:51;33.83;;;19.45;;
44480;SDS011;30184;42.018;23.670;2023-02-23T08:46:20;24.55;;;14.02;;
44480;SDS011;30184;42.018;23.670;2023-02-23T08:48:49;19.58;;;12.18;;
44480;SDS011;30184;42.018;23.670;2023-02-23T08:51:20;27.55;;;13.95;;
44480;SDS011;30184;42.018;23.670;2023-02-23T08:53:48;43.35;;;18.92;;
44480;SDS011;30184;42.018;23.670;2023-02-23T08:56:17;34.17;;;15.57;;
44480;SDS011;30184;42.018;23.670;2023-02-23T08:58:46;31.38;;;15.90;;
44480;SDS011;30184;42.018;23.670;2023-02-23T09:01:16;32.22;;;16.10;;
44480;SDS011;30184;42.018;23.670;2023-02-23T09:03:48;31.25;;;16.42;;
44480;SDS011;30184;42.018;23.670;2023-02-23T09:06:18;24.92;;;13.13;;
44480;SDS011;30184;42.018;23.670;2023-02-23T09:08:51;57.50;;;28.83;;
44480;SDS011;30184;42.018;23.670;2023-02-23T09:11:21;54.00;;;41.72;;
44480;SDS011;30184;42.018;23.670;2023-02-23T09:13:51;34.65;;;19.67;;
44480;SDS011;30184;42.018;23.670;2023-02-23T09:16:20;31.15;;;16.45;;
44480;SDS011;30184;42.018;23.670;2023-02-23T09:18:49;22.75;;;12.32;;
44480;SDS011;30184;42.018;23.670;2023-02-23T09:21:18;23.02;;;12.63;;
44480;SDS011;30184;42.018;23.670;2023-02-23T09:23:51;27.55;;;16.98;;
44480;SDS011;30184;42.018;23.670;2023-02-23T09:26:22;26.38;;;13.38;;
44480;SDS011;30184;42.018;23.670;2023-02-23T09:28:52;23.33;;;13.10;;
44480;SDS011;30184;42.018;23.670;2023-02-23T09:31:22;24.08;;;11.90;;
44480;SDS011;30184;42.018;23.670;2023-02-23T09:33:51;17.83;;;10.25;;
44480;SDS011;30184;42.018;23.670;2023-02-23T09:36:23;15.73;;;8.63;;
44480;SDS011;30184;42.018;23.670;2023-02-23T09:38:53;16.55;;;9.45;;
44480;SDS011;30184;42.018;23.670;2023-02-23T09:44:28;19.90;;;10.57;;
44480;SDS011;30184;42.018;23.670;2023-02-23T09:47:10;22.98;;;13.75;;
44480;SDS011;30184;42.018;23.670;2023-02-23T09:49:49;18.40;;;7.78;;
44480;SDS011;30184;42.018;23.670;2023-02-23T09:52:21;22.67;;;11.75;;
44480;SDS011;30184;42.018;23.670;2023-02-23T09:54:53;24.88;;;12.07;;
44480;SDS011;30184;42.018;23.670;2023-02-23T09:57:25;35.58;;;12.18;;
44480;SDS011;30184;42.018;23.670;2023-02-23T10:00:03;17.92;;;10.70;;
44480;SDS011;30184;42.018;23.670;2023-02-23T10:02:42;17.23;;;7.93;;
44480;SDS011;30184;42.018;23.670;2023-02-23T10:05:35;17.90;;;10.32;;
44480;SDS011;30184;42.018;23.670;2023-02-23T10:08:19;19.73;;;9.68;;
44480;SDS011;30184;42.018;23.670;2023-02-23T10:10:59;15.45;;;7.60;;
44480;SDS011;30184;42.018;23.670;2023-02-23T10:13:37;28.00;;;11.90;;
44480;SDS011;30184;42.018;23.670;2023-02-23T10:16:17;38.03;;;14.95;;
44480;SDS011;30184;42.018;23.670;2023-02-23T10:18:52;19.67;;;10.52;;
44480;SDS011;30184;42.018;23.670;2023-02-23T10:21:28;18.40;;;9.38;;
44480;SDS011;30184;42.018;23.670;2023-02-23T10:24:04;21.52;;;10.95;;
44480;SDS011;30184;42.018;23.670;2023-02-23T10:26:39;17.83;;;8.82;;
44480;SDS011;30184;42.018;23.670;2023-02-23T10:29:15;14.10;;;7.43;;
44480;SDS011;30184;42.018;23.670;2023-02-23T10:31:53;13.52;;;7.97;;
44480;SDS011;30184;42.018;23.670;2023-02-23T10:34:25;22.95;;;7.22;;
44480;SDS011;30184;42.018;23.670;2023-02-23T10:36:57;10.38;;;5.68;;
44480;SDS011;30184;42.018;23.670;2023-02-23T10:39:29;15.70;;;7.82;;
44480;SDS011;30184;42.018;23.670;2023-02-23T10:42:01;18.02;;;6.25;;
44480;SDS011;30184;42.018;23.670;2023-02-23T10:44:33;21.05;;;7.57;;
44480;SDS011;30184;42.018;23.670;2023-02-23T10:47:05;12.98;;;5.00;;
44480;SDS011;30184;42.018;23.670;2023-02-23T10:49:38;16.38;;;6.47;;
44480;SDS011;30184;42.018;23.670;2023-02-23T10:52:11;16.95;;;8.50;;
44480;SDS011;30184;42.018;23.670;2023-02-23T10:54:44;15.10;;;6.25;;
44480;SDS011;30184;42.018;23.670;2023-02-23T10:57:18;22.60;;;8.93;;
44480;SDS011;30184;42.018;23.670;2023-02-23T10:59:58;40.20;;;16.48;;
44480;SDS011;30184;42.018;23.670;2023-02-23T11:02:42;11.82;;;7.18;;
44480;SDS011;30184;42.018;23.670;2023-02-23T11:05:24;10.43;;;4.45;;
44480;SDS011;30184;42.018;23.670;2023-02-23T11:08:07;14.90;;;5.80;;
44480;SDS011;30184;42.018;23.670;2023-02-23T11:13:51;16.48;;;7.20;;
44480;SDS011;30184;42.018;23.670;2023-02-23T11:16:20;20.15;;;7.45;;
44480;SDS011;30184;42.018;23.670;2023-02-23T11:18:52;17.73;;;7.40;;
44480;SDS011;30184;42.018;23.670;2023-02-23T11:21:24;13.80;;;7.53;;
44480;SDS011;30184;42.018;23.670;2023-02-23T11:23:56;12.25;;;6.30;;
44480;SDS011;30184;42.018;23.670;2023-02-23T11:26:32;11.88;;;5.78;;
44480;SDS011;30184;42.018;23.670;2023-02-23T11:29:11;16.17;;;7.20;;
44480;SDS011;30184;42.018;23.670;2023-02-23T11:31:47;22.58;;;8.73;;
44480;SDS011;30184;42.018;23.670;2023-02-23T11:34:26;16.63;;;9.90;;
44480;SDS011;30184;42.018;23.670;2023-02-23T11:36:58;9.98;;;4.88;;
44480;SDS011;30184;42.018;23.670;2023-02-23T11:39:29;18.85;;;10.23;;
44480;SDS011;30184;42.018;23.670;2023-02-23T11:42:11;22.63;;;10.30;;
44480;SDS011;30184;42.018;23.670;2023-02-23T11:44:43;23.10;;;12.18;;
44480;SDS011;30184;42.018;23.670;2023-02-23T11:47:18;17.05;;;8.35;;
44480;SDS011;30184;42.018;23.670;2023-02-23T11:49:49;17.00;;;9.50;;
44480;SDS011;30184;42.018;23.670;2023-02-23T11:52:19;26.55;;;14.15;;
44480;SDS011;30184;42.018;23.670;2023-02-23T11:54:52;69.03;;;33.47;;
44480;SDS011;30184;42.018;23.670;2023-02-23T11:57:25;14.75;;;6.75;;
44480;SDS011;30184;42.018;23.670;2023-02-23T11:59:57;20.30;;;8.60;;
44480;SDS011;30184;42.018;23.670;2023-02-23T12:02:43;35.50;;;18.98;;
44480;SDS011;30184;42.018;23.670;2023-02-23T12:05:17;31.35;;;16.58;;
44480;SDS011;30184;42.018;23.670;2023-02-23T12:07:51;53.08;;;27.38;;
44480;SDS011;30184;42.018;23.670;2023-02-23T12:10:23;72.53;;;40.78;;
44480;SDS011;30184;42.018;23.670;2023-02-23T12:12:59;15.73;;;7.72;;
44480;SDS011;30184;42.018;23.670;2023-02-23T12:15:38;38.13;;;16.65;;
44480;SDS011;30184;42.018;23.670;2023-02-23T12:18:14;50.17;;;29.90;;
44480;SDS011;30184;42.018;23.670;2023-02-23T12:20:48;16.92;;;11.07;;
44480;SDS011;30184;42.018;23.670;2023-02-23T12:23:20;27.63;;;14.30;;
44480;SDS011;30184;42.018;23.670;2023-02-23T12:25:54;19.65;;;12.90;;
44480;SDS011;30184;42.018;23.670;2023-02-23T12:28:30;15.05;;;6.82;;
44480;SDS011;30184;42.018;23.670;2023-02-23T12:31:05;11.93;;;6.80;;
44480;SDS011;30184;42.018;23.670;2023-02-23T12:33:46;13.25;;;6.20;;
44480;SDS011;30184;42.018;23.670;2023-02-23T12:36:23;11.68;;;5.70;;
44480;SDS011;30184;42.018;23.670;2023-02-23T12:38:59;16.27;;;7.53;;
44480;SDS011;30184;42.018;23.670;2023-02-23T12:41:35;18.50;;;9.98;;
44480;SDS011;30184;42.018;23.670;2023-02-23T12:44:11;14.45;;;7.38;;
44480;SDS011;30184;42.018;23.670;2023-02-23T12:46:58;12.93;;;6.38;;
44480;SDS011;30184;42.018;23.670;2023-02-23T12:49:33;12.85;;;7.07;;
44480;SDS011;30184;42.018;23.670;2023-02-23T12:52:08;19.45;;;10.70;;
44480;SDS011;30184;42.018;23.670;2023-02-23T12:54:41;118.40;;;58.08;;
44480;SDS011;30184;42.018;23.670;2023-02-23T12:57:15;19.35;;;9.63;;
44480;SDS011;30184;42.018;23.670;2023-02-23T12:59:58;21.10;;;7.45;;
44480;SDS011;30184;42.018;23.670;2023-02-23T13:02:51;49.17;;;28.05;;
44480;SDS011;30184;42.018;23.670;2023-02-23T13:05:29;37.47;;;17.77;;
44480;SDS011;30184;42.018;23.670;2023-02-23T13:08:02;15.93;;;7.40;;
44480;SDS011;30184;42.018;23.670;2023-02-23T13:10:41;16.95;;;6.57;;
44480;SDS011;30184;42.018;23.670;2023-02-23T13:13:21;44.47;;;22.67;;
44480;SDS011;30184;42.018;23.670;2023-02-23T13:16:04;20.77;;;7.80;;
44480;SDS011;30184;42.018;23.670;2023-02-23T13:18:40;15.85;;;8.02;;
44480;SDS011;30184;42.018;23.670;2023-02-23T13:21:15;16.27;;;9.20;;
44480;SDS011;30184;42.018;23.670;2023-02-23T13:23:53;34.22;;;7.78;;
44480;SDS011;30184;42.018;23.670;2023-02-23T13:26:31;25.00;;;12.43;;
44480;SDS011;30184;42.018;23.670;2023-02-23T13:29:07;11.57;;;6.22;;
44480;SDS011;30184;42.018;23.670;2023-02-23T13:31:51;11.05;;;5.45;;
44480;SDS011;30184;42.018;23.670;2023-02-23T13:34:23;10.07;;;6.00;;
44480;SDS011;30184;42.018;23.670;2023-02-23T13:36:56;15.57;;;4.75;;
44480;SDS011;30184;42.018;23.670;2023-02-23T13:39:39;8.43;;;4.82;;
44480;SDS011;30184;42.018;23.670;2023-02-23T13:42:18;7.60;;;4.30;;
44480;SDS011;30184;42.018;23.670;2023-02-23T13:44:57;7.50;;;4.10;;
44480;SDS011;30184;42.018;23.670;2023-02-23T13:47:42;11.20;;;3.67;;
44480;SDS011;30184;42.018;23.670;2023-02-23T13:50:16;10.32;;;4.22;;
44480;SDS011;30184;42.018;23.670;2023-02-23T13:52:50;13.52;;;6.13;;
44480;SDS011;30184;42.018;23.670;2023-02-23T13:58:21;13.48;;;4.22;;
44480;SDS011;30184;42.018;23.670;2023-02-23T14:01:02;8.77;;;4.45;;
44480;SDS011;30184;42.018;23.670;2023-02-23T14:03:43;6.70;;;3.67;;
44480;SDS011;30184;42.018;23.670;2023-02-23T14:06:21;8.70;;;4.70;;
44480;SDS011;30184;42.018;23.670;2023-02-23T14:08:53;7.68;;;4.45;;
44480;SDS011;30184;42.018;23.670;2023-02-23T14:11:37;8.63;;;5.35;;
44480;SDS011;30184;42.018;23.670;2023-02-23T14:14:12;9.55;;;5.13;;
44480;SDS011;30184;42.018;23.670;2023-02-23T14:16:43;11.43;;;4.97;;
44480;SDS011;30184;42.018;23.670;2023-02-23T14:20:04;10.25;;;4.68;;
44480;SDS011;30184;42.018;23.670;2023-02-23T14:26:08;14.32;;;6.25;;
44480;SDS011;30184;42.018;23.670;2023-02-23T14:28:39;14.43;;;7.05;;
44480;SDS011;30184;42.018;23.670;2023-02-23T14:31:17;13.88;;;5.50;;
44480;SDS011;30184;42.018;23.670;2023-02-23T14:33:50;12.43;;;5.95;;
44480;SDS011;30184;42.018;23.670;2023-02-23T14:36:34;14.30;;;7.13;;
44480;SDS011;30184;42.018;23.670;2023-02-23T14:39:08;11.82;;;6.47;;
44480;SDS011;30184;42.018;23.670;2023-02-23T14:41:44;28.85;;;12.10;;
44480;SDS011;30184;42.018;23.670;2023-02-23T14:44:17;113.32;;;56.15;;
44480;SDS011;30184;42.018;23.670;2023-02-23T14:46:59;29.52;;;11.70;;
44480;SDS011;30184;42.018;23.670;2023-02-23T14:49:31;22.30;;;9.50;;
44480;SDS011;30184;42.018;23.670;2023-02-23T14:52:05;50.53;;;31.73;;
44480;SDS011;30184;42.018;23.670;2023-02-23T14:54:40;23.88;;;12.57;;
44480;SDS011;30184;42.018;23.670;2023-02-23T14:57:15;20.13;;;11.57;;
44480;SDS011;30184;42.018;23.670;2023-02-23T14:59:50;19.70;;;8.70;;
44480;SDS011;30184;42.018;23.670;2023-02-23T15:02:21;19.17;;;10.75;;
44480;SDS011;30184;42.018;23.670;2023-02-23T15:04:52;25.83;;;10.77;;
44480;SDS011;30184;42.018;23.670;2023-02-23T15:07:25;18.83;;;9.63;;
44480;SDS011;30184;42.018;23.670;2023-02-23T15:09:58;29.38;;;16.02;;
44480;SDS011;30184;42.018;23.670;2023-02-23T15:12:33;33.85;;;25.70;;
44480;SDS011;30184;42.018;23.670;2023-02-23T15:15:05;24.95;;;18.52;;
44480;SDS011;30184;42.018;23.670;2023-02-23T15:17:43;33.67;;;19.17;;
44480;SDS011;30184;42.018;23.670;2023-02-23T15:20:15;30.45;;;14.30;;